Lime Valley, Pennsylvania
Current Conditions -  °F | °C
As of 4:53 PM on Friday 24 Oct 2014 (Local Time) from KLNS Reporting Station
Clear Clear  
Wind Chill: 63°   Ceiling: Unl
Heat Index: 63°   Visibility: 10mi
Dew Point: 34°   Wind: 15mph
Humidity: 34%   Direction: 300°WNW
Pressure: 29.85"   Gusts: NA
Location:  39.9601°N, 76.2683°W
Report Text: KLNS 242053Z 30013KT 10SM CLR 17/01 A2985 RMK AO2 SLP107 T01720011 55005
Loading
Personal Weather Stations






























Interactive Weather Map
Tropical Storm Tracking
New forecast layout! Learn more

10-Day Weather Forecast

Advertisements
Track Severe Weather on mobile